Terminal Aerodrome Forecast
Issued by NWS Wilmington, OH

Home | Current Version | Previous Version | Text Only | Print | Product List | Glossary On
Versions: 1 2 3 4 5 6 7 8 9 10 11 12 13 14 15 16 17 18 19 20 21 22 23 24 25 26
000
FTUS41 KILN 191000 AAA
TAFILN
TAF AMD
KILN 191027Z 1910/2006 36003KT P6SM BKN022 OVC050
      TEMPO 1910/1914 BKN015
     FM192000 02003KT P6SM OVC035=

USA.gov is the U.S. government's official web portal to all federal, state and local government web resources and services.